createdAt,value
2022-08-07T13:24:01.848Z,62.50
2022-08-07T13:26:31.230Z,62.80
2022-08-07T13:28:59.120Z,62.70
2022-08-07T13:31:26.401Z,63.40
2022-08-07T13:34:33.615Z,63.50
2022-08-07T13:36:46.291Z,62.40
2022-08-07T13:39:49.082Z,63.10
2022-08-07T13:42:01.149Z,63.90
2022-08-07T13:44:34.502Z,63.40
2022-08-07T13:47:04.726Z,62.70
2022-08-07T13:50:33.462Z,61.70
2022-08-07T13:52:32.063Z,62.40
2022-08-07T13:55:03.487Z,61.40
2022-08-07T13:57:38.500Z,61.50
2022-08-07T14:00:07.135Z,61.20
2022-08-07T14:02:39.787Z,61.00
2022-08-07T14:05:18.050Z,61.00
2022-08-07T14:07:59.619Z,61.40
2022-08-07T14:10:28.338Z,61.30
2022-08-07T14:12:58.751Z,61.60
2022-08-07T14:15:28.547Z,61.40
2022-08-07T14:18:15.628Z,62.10
2022-08-07T14:20:49.070Z,61.60
2022-08-07T14:23:59.005Z,61.40
2022-08-07T14:26:08.586Z,60.70
2022-08-07T14:28:55.856Z,61.00
2022-08-07T14:31:22.093Z,61.20
2022-08-07T14:33:50.472Z,60.50
2022-08-07T14:36:17.241Z,61.70
2022-08-07T14:38:50.523Z,61.60
2022-08-07T14:41:17.533Z,61.00
2022-08-07T14:44:11.590Z,61.60
2022-08-07T14:49:57.099Z,60.80
2022-08-07T14:52:16.869Z,60.50
2022-08-07T14:54:43.643Z,60.50
2022-08-07T14:57:11.698Z,60.00
2022-08-07T15:00:05.707Z,60.60
2022-08-07T15:02:34.928Z,60.60
2022-08-07T15:05:02.147Z,60.90
2022-08-07T15:07:47.183Z,60.30
2022-08-07T15:10:14.505Z,59.90
2022-08-07T15:12:54.715Z,60.10
2022-08-07T15:15:22.842Z,60.50
2022-08-07T15:17:55.151Z,60.20
2022-08-07T15:20:54.539Z,60.20
2022-08-07T15:23:22.763Z,60.00
2022-08-07T15:26:09.594Z,59.70
2022-08-07T15:31:57.897Z,59.90
2022-08-07T15:34:15.016Z,60.00
2022-08-07T15:37:03.890Z,59.50
2022-08-07T15:39:57.378Z,59.50
2022-08-07T15:42:44.358Z,59.40
2022-08-07T15:45:03.833Z,59.40
2022-08-07T15:48:00.237Z,59.90
2022-08-07T15:50:37.889Z,59.50
2022-08-07T15:53:13.754Z,59.90
2022-08-07T15:55:53.715Z,59.30
2022-08-07T15:58:32.481Z,59.80
2022-08-07T16:00:59.468Z,59.40
2022-08-07T16:03:46.551Z,58.90
2022-08-07T16:06:12.899Z,59.10
2022-08-07T16:08:39.616Z,58.50
2022-08-07T16:11:26.458Z,58.60
2022-08-07T16:13:59.382Z,58.30
2022-08-07T16:16:47.884Z,57.80
2022-08-07T16:19:13.628Z,56.50
2022-08-07T16:22:02.366Z,56.10
2022-08-07T16:24:35.055Z,56.10
2022-08-07T16:27:02.202Z,54.90
2022-08-07T16:30:10.722Z,54.50
2022-08-07T16:32:32.836Z,54.40
2022-08-07T16:35:00.170Z,54.30
2022-08-07T16:38:03.808Z,53.90
2022-08-07T16:40:23.344Z,53.50
2022-08-07T16:42:55.800Z,52.80
2022-08-07T16:46:33.513Z,52.90
2022-08-07T16:48:09.381Z,53.70
2022-08-07T16:50:52.815Z,52.70
2022-08-07T16:54:01.547Z,52.10
2022-08-07T16:56:13.984Z,52.00
2022-08-07T16:59:11.234Z,51.60
2022-08-07T17:01:27.435Z,52.30
2022-08-07T17:04:01.387Z,51.30
2022-08-07T17:06:31.391Z,51.30
2022-08-07T17:09:09.312Z,51.10
2022-08-07T17:12:04.184Z,50.30
2022-08-07T17:14:24.547Z,50.90
2022-08-07T17:16:55.487Z,50.20
2022-08-07T17:19:23.998Z,50.60
2022-08-07T17:22:10.589Z,50.70
2022-08-07T17:24:37.424Z,51.10
2022-08-07T17:27:05.468Z,49.60
2022-08-07T17:30:16.194Z,49.80
2022-08-07T17:32:30.760Z,50.20
2022-08-07T17:35:49.785Z,50.30
2022-08-07T17:38:05.185Z,50.00
2022-08-07T17:40:34.095Z,49.40
2022-08-07T17:43:00.943Z,48.70
2022-08-07T17:45:27.704Z,48.60
2022-08-07T17:47:54.575Z,48.80
2022-08-07T17:50:21.998Z,48.50
2022-08-07T17:52:48.807Z,48.90
2022-08-07T17:55:56.611Z,48.70
2022-08-07T17:58:04.158Z,48.90
2022-08-07T18:00:34.656Z,48.50
2022-08-07T18:03:18.094Z,48.30
2022-08-07T18:06:03.489Z,48.10
2022-08-07T18:08:33.069Z,48.10
2022-08-07T18:12:07.855Z,47.80
2022-08-07T18:13:48.458Z,47.60
2022-08-07T18:16:15.849Z,47.80
2022-08-07T18:21:04.548Z,47.40
2022-08-07T18:21:57.895Z,47.90
2022-08-07T18:24:33.978Z,47.80
2022-08-07T18:27:01.687Z,48.00
2022-08-07T18:30:06.479Z,47.50
2022-08-07T18:32:19.847Z,47.60
2022-08-07T18:35:01.239Z,47.90
2022-08-07T18:38:55.332Z,48.40
2022-08-07T18:40:42.858Z,49.00
2022-08-07T18:43:06.314Z,49.50
2022-08-07T18:45:43.375Z,50.60
2022-08-07T18:50:05.933Z,50.20
2022-08-07T18:51:08.390Z,50.50
2022-08-07T18:53:39.283Z,50.30
2022-08-07T18:56:06.646Z,50.80
2022-08-07T18:58:33.358Z,50.80
2022-08-07T19:01:01.228Z,51.70
2022-08-07T19:03:37.831Z,51.10
2022-08-07T19:06:05.174Z,51.30
2022-08-07T19:08:31.972Z,51.70
2022-08-07T19:11:00.744Z,51.60
2022-08-07T19:13:27.736Z,51.60
2022-08-07T19:16:04.981Z,51.80
2022-08-07T19:18:44.791Z,51.90
2022-08-07T19:21:44.176Z,52.10
2022-08-07T19:24:01.333Z,52.90
2022-08-07T19:26:29.165Z,52.50
2022-08-07T19:31:05.748Z,52.70
2022-08-07T19:32:08.235Z,53.00
2022-08-07T19:34:34.022Z,53.20
2022-08-07T19:37:10.253Z,53.30
2022-08-07T19:39:58.018Z,53.50
2022-08-07T19:42:30.363Z,53.60
2022-08-07T19:44:57.390Z,53.70
2022-08-07T19:47:27.846Z,53.90
2022-08-07T19:49:57.703Z,54.10
2022-08-07T19:52:29.690Z,54.10
2022-08-07T19:54:58.402Z,54.30
2022-08-07T19:58:01.692Z,54.60
2022-08-07T20:00:28.128Z,54.80
2022-08-07T20:02:55.623Z,54.80
2022-08-07T20:05:25.350Z,55.00
2022-08-07T20:07:54.914Z,55.30
2022-08-07T20:10:38.346Z,55.30
2022-08-07T20:13:22.986Z,55.40
2022-08-07T20:15:50.795Z,55.80
2022-08-07T20:18:20.117Z,56.00
2022-08-07T20:20:46.916Z,56.30
2022-08-07T20:23:32.694Z,56.40
2022-08-07T20:26:01.760Z,56.60
2022-08-07T20:28:30.821Z,56.70
2022-08-07T20:30:58.194Z,57.00
2022-08-07T20:33:36.969Z,57.50
2022-08-07T20:36:05.325Z,57.50
2022-08-07T20:38:32.560Z,57.50
2022-08-07T20:41:03.880Z,57.90
2022-08-07T20:43:32.511Z,58.40
2022-08-07T20:46:27.637Z,59.40
2022-08-07T20:49:00.761Z,59.30
2022-08-07T20:51:36.144Z,60.10
2022-08-07T20:54:15.098Z,60.70
2022-08-07T20:56:48.213Z,61.90
2022-08-07T21:00:05.065Z,61.30
2022-08-07T21:02:04.429Z,61.60
2022-08-07T21:04:41.389Z,62.10
2022-08-07T21:07:14.310Z,62.40
2022-08-07T21:09:53.034Z,62.90
2022-08-07T21:12:30.678Z,63.10
2022-08-07T21:14:57.675Z,63.50
2022-08-07T21:18:02.842Z,63.60
2022-08-07T21:20:14.208Z,64.20
2022-08-07T21:22:53.717Z,63.90
2022-08-07T21:25:21.567Z,64.30
2022-08-07T21:27:49.152Z,64.90
2022-08-07T21:30:23.557Z,65.10
2022-08-07T21:32:52.016Z,65.50
2022-08-07T21:35:34.743Z,66.00
2022-08-07T21:38:05.947Z,66.30
2022-08-07T21:40:36.106Z,67.00
2022-08-07T21:43:05.206Z,67.20
2022-08-07T21:46:10.419Z,67.70
2022-08-07T21:48:28.281Z,67.70
2022-08-07T21:50:59.125Z,68.30
2022-08-07T21:53:25.819Z,69.20
2022-08-07T21:55:53.001Z,69.00
2022-08-07T21:58:30.017Z,69.10
2022-08-07T22:00:59.589Z,69.30
2022-08-07T22:03:31.049Z,69.80
2022-08-07T22:05:58.523Z,70.30
2022-08-07T22:08:25.216Z,69.90
2022-08-07T22:10:52.034Z,70.40
2022-08-07T22:13:24.638Z,70.70
2022-08-07T22:16:42.993Z,70.90
2022-08-07T22:18:52.755Z,71.40
2022-08-07T22:21:20.447Z,71.30
